Cut Bank, MT

12:10 AM MST on January 26, 2015 (GMT -0700)
Cut Bank, MT - North-West Side of Town | Change Station
CLOSE
Current Station
Personal Weather Station
Location: Cut Bank, MT
Elevation: 3754 ft
Nearby Weather Stations

Elev 3754 ft 48.64 °N, 112.33 °W | Updated 5 seconds ago

Clear
Clear
40.8 °F
Feels Like 41 °F
N
0.0
Wind Variable Wind from SSW
Gusts 3.5 mph

Today
High -- | Low -- °F
--% Chance of Precip.
Yesterday
High -- | Low -- °F
Precip. -- in
8:06 AM 5:17 PM
Waxing Crescent, 40% visible
Pressure 30.03 in
Visibility 10.0 miles
Clouds Clear
Windchill 41 °F
Dew Point 28 °F
Humidity 60%
Rainfall 0.00 in
Snow Depth Not available.
UV 0 out of 12
Pollen .30 out of 12
Air Quality Not available.
Flu Activity Not available.
METAR KCTB 260656Z AUTO 24010KT 10SM CLR 07/M02 A3003 RMK AO2 SLP168 T00671017 401440056

More Conditions Fewer Conditions

Pressure 30.03 in
Visibility 10.0 miles
Clouds Clear
Windchill 41 °F
Dew Point 28 °F
Humidity 60%
Rainfall 0.00 in
Snow Depth Not available.
UV 0 out of 12
Pollen .30 out of 12
Air Quality Not available.
Flu Activity Not available.
METAR KCTB 260656Z AUTO 24010KT 10SM CLR 07/M02 A3003 RMK AO2 SLP168 T00671017 401440056

More Conditions Fewer Conditions

10-Day Weather Forecast

Almanac

Astronomy

Jan. 26, 2015 Rise Set
Actual Time
Civil Twilight
Nautical Twilight
Astronomical Twilight
Moon
Length of Visible Light
Length of Day
Tomorrow will be .
, % of the Moon is Illuminated

Today's Extremes

State Highs State Lows

Community

WunderPhotos

Upload Photos

1,790,155 photos uploaded!

WunderBlogs® & News

Nearby

Air Quality

  Air Quality AQ Index Pollutant
Not available.

Snow Depth

Station Depth Elevation

Earthquake Activity

City Distance Mag. Time & Date
Minimum magnitude displayed is 2.5.

Coastal Water Temperatures

Place Temperature

Nearby Weather Stations